sensor_id;sensor_type;location;lat;lon;timestamp;temperature;humidity
50907;DHT22;36882;27.680;85.304;2022-12-20T00:02:15;10.80;94.40
50907;DHT22;36882;27.680;85.304;2022-12-20T00:04:46;10.80;94.40
50907;DHT22;36882;27.680;85.304;2022-12-20T00:07:16;10.80;94.50
50907;DHT22;36882;27.680;85.304;2022-12-20T00:09:46;10.80;94.50
50907;DHT22;36882;27.680;85.304;2022-12-20T00:12:16;10.90;94.60
50907;DHT22;36882;27.680;85.304;2022-12-20T00:14:46;10.80;94.50
50907;DHT22;36882;27.680;85.304;2022-12-20T00:17:16;10.90;94.50
50907;DHT22;36882;27.680;85.304;2022-12-20T00:19:46;10.80;94.40
50907;DHT22;36882;27.680;85.304;2022-12-20T00:22:16;10.80;94.40
50907;DHT22;36882;27.680;85.304;2022-12-20T00:24:46;10.80;94.40
50907;DHT22;36882;27.680;85.304;2022-12-20T00:27:16;10.80;94.40
50907;DHT22;36882;27.680;85.304;2022-12-20T00:29:46;10.70;94.50
50907;DHT22;36882;27.680;85.304;2022-12-20T00:32:16;10.80;94.70
50907;DHT22;36882;27.680;85.304;2022-12-20T00:34:46;10.80;94.60
50907;DHT22;36882;27.680;85.304;2022-12-20T00:37:16;10.80;94.60
50907;DHT22;36882;27.680;85.304;2022-12-20T00:39:46;10.80;94.60
50907;DHT22;36882;27.680;85.304;2022-12-20T00:42:16;10.70;94.70
50907;DHT22;36882;27.680;85.304;2022-12-20T00:44:46;10.70;94.70
50907;DHT22;36882;27.680;85.304;2022-12-20T00:47:16;10.80;94.70
50907;DHT22;36882;27.680;85.304;2022-12-20T00:49:46;10.80;94.70
50907;DHT22;36882;27.680;85.304;2022-12-20T00:52:16;10.80;94.60
50907;DHT22;36882;27.680;85.304;2022-12-20T00:54:46;10.80;94.60
50907;DHT22;36882;27.680;85.304;2022-12-20T00:57:15;10.70;94.70
50907;DHT22;36882;27.680;85.304;2022-12-20T00:59:45;10.70;94.70
50907;DHT22;36882;27.680;85.304;2022-12-20T01:02:15;10.70;94.80
50907;DHT22;36882;27.680;85.304;2022-12-20T01:04:48;10.70;94.70
50907;DHT22;36882;27.680;85.304;2022-12-20T01:07:18;10.70;94.70
50907;DHT22;36882;27.680;85.304;2022-12-20T01:09:49;10.70;94.70
50907;DHT22;36882;27.680;85.304;2022-12-20T01:12:19;10.70;94.60
50907;DHT22;36882;27.680;85.304;2022-12-20T01:14:49;10.60;94.60
50907;DHT22;36882;27.680;85.304;2022-12-20T01:17:19;10.70;94.70
50907;DHT22;36882;27.680;85.304;2022-12-20T01:19:49;10.70;94.70
50907;DHT22;36882;27.680;85.304;2022-12-20T01:22:18;10.70;94.70
50907;DHT22;36882;27.680;85.304;2022-12-20T01:24:48;10.70;94.70
50907;DHT22;36882;27.680;85.304;2022-12-20T01:27:18;10.70;94.70
50907;DHT22;36882;27.680;85.304;2022-12-20T01:29:48;10.70;94.70
50907;DHT22;36882;27.680;85.304;2022-12-20T01:32:18;10.80;94.50
50907;DHT22;36882;27.680;85.304;2022-12-20T01:34:48;10.90;94.30
50907;DHT22;36882;27.680;85.304;2022-12-20T01:37:21;10.80;94.40
50907;DHT22;36882;27.680;85.304;2022-12-20T01:39:51;10.90;94.50
50907;DHT22;36882;27.680;85.304;2022-12-20T01:42:21;10.80;94.50
50907;DHT22;36882;27.680;85.304;2022-12-20T01:44:55;10.90;94.70
50907;DHT22;36882;27.680;85.304;2022-12-20T01:47:27;10.90;94.70
50907;DHT22;36882;27.680;85.304;2022-12-20T01:49:59;11.10;94.80
50907;DHT22;36882;27.680;85.304;2022-12-20T01:52:41;11.00;94.80
50907;DHT22;36882;27.680;85.304;2022-12-20T01:57:59;11.10;94.60
50907;DHT22;36882;27.680;85.304;2022-12-20T02:00:30;11.10;94.70
50907;DHT22;36882;27.680;85.304;2022-12-20T02:03:04;11.20;94.80
50907;DHT22;36882;27.680;85.304;2022-12-20T02:05:38;11.20;94.90
50907;DHT22;36882;27.680;85.304;2022-12-20T02:08:12;11.30;94.80
50907;DHT22;36882;27.680;85.304;2022-12-20T02:11:14;11.40;94.60
50907;DHT22;36882;27.680;85.304;2022-12-20T02:17:07;11.60;94.00
50907;DHT22;36882;27.680;85.304;2022-12-20T02:23:00;11.80;93.80
50907;DHT22;36882;27.680;85.304;2022-12-20T02:28:57;12.00;93.70
50907;DHT22;36882;27.680;85.304;2022-12-20T02:31:38;12.20;93.50
50907;DHT22;36882;27.680;85.304;2022-12-20T02:34:10;12.30;93.30
50907;DHT22;36882;27.680;85.304;2022-12-20T02:36:40;12.30;93.20
50907;DHT22;36882;27.680;85.304;2022-12-20T02:39:12;12.40;93.40
50907;DHT22;36882;27.680;85.304;2022-12-20T02:41:50;12.40;93.30
50907;DHT22;36882;27.680;85.304;2022-12-20T02:44:25;12.50;93.20
50907;DHT22;36882;27.680;85.304;2022-12-20T02:47:15;12.50;93.10
50907;DHT22;36882;27.680;85.304;2022-12-20T02:49:47;12.60;93.00
50907;DHT22;36882;27.680;85.304;2022-12-20T02:52:19;12.70;92.90
50907;DHT22;36882;27.680;85.304;2022-12-20T02:54:50;12.80;92.90
50907;DHT22;36882;27.680;85.304;2022-12-20T02:57:27;12.80;92.70
50907;DHT22;36882;27.680;85.304;2022-12-20T03:00:03;12.90;92.80
50907;DHT22;36882;27.680;85.304;2022-12-20T03:02:35;13.00;92.80
50907;DHT22;36882;27.680;85.304;2022-12-20T03:05:24;13.10;92.70
50907;DHT22;36882;27.680;85.304;2022-12-20T03:07:54;13.20;92.20
50907;DHT22;36882;27.680;85.304;2022-12-20T03:10:25;13.20;92.10
50907;DHT22;36882;27.680;85.304;2022-12-20T03:12:55;13.30;91.90
50907;DHT22;36882;27.680;85.304;2022-12-20T03:15:25;13.40;91.70
50907;DHT22;36882;27.680;85.304;2022-12-20T03:17:54;13.50;91.90
50907;DHT22;36882;27.680;85.304;2022-12-20T03:20:24;13.50;92.00
50907;DHT22;36882;27.680;85.304;2022-12-20T03:22:54;13.60;91.80
50907;DHT22;36882;27.680;85.304;2022-12-20T03:25:24;13.60;91.80
50907;DHT22;36882;27.680;85.304;2022-12-20T03:27:54;13.70;91.80
50907;DHT22;36882;27.680;85.304;2022-12-20T03:30:24;13.90;91.60
50907;DHT22;36882;27.680;85.304;2022-12-20T03:32:54;13.90;91.40
50907;DHT22;36882;27.680;85.304;2022-12-20T03:35:24;14.00;91.50
50907;DHT22;36882;27.680;85.304;2022-12-20T03:37:54;14.10;91.30
50907;DHT22;36882;27.680;85.304;2022-12-20T03:40:24;14.10;91.20
50907;DHT22;36882;27.680;85.304;2022-12-20T03:42:54;14.10;91.40
50907;DHT22;36882;27.680;85.304;2022-12-20T03:45:24;14.20;91.30
50907;DHT22;36882;27.680;85.304;2022-12-20T03:47:54;14.20;91.30
50907;DHT22;36882;27.680;85.304;2022-12-20T03:50:24;14.30;91.20
50907;DHT22;36882;27.680;85.304;2022-12-20T03:52:54;14.40;91.10
50907;DHT22;36882;27.680;85.304;2022-12-20T03:55:24;14.40;91.00
50907;DHT22;36882;27.680;85.304;2022-12-20T03:57:54;14.50;91.10
50907;DHT22;36882;27.680;85.304;2022-12-20T04:00:24;14.60;90.60
50907;DHT22;36882;27.680;85.304;2022-12-20T04:02:54;14.60;90.70
50907;DHT22;36882;27.680;85.304;2022-12-20T04:05:24;14.70;90.20
50907;DHT22;36882;27.680;85.304;2022-12-20T04:07:54;14.80;90.10
50907;DHT22;36882;27.680;85.304;2022-12-20T04:10:25;14.90;90.20
50907;DHT22;36882;27.680;85.304;2022-12-20T04:12:54;15.00;90.10
50907;DHT22;36882;27.680;85.304;2022-12-20T04:15:24;15.10;90.00
50907;DHT22;36882;27.680;85.304;2022-12-20T04:17:55;15.20;89.70
50907;DHT22;36882;27.680;85.304;2022-12-20T04:20:24;15.30;89.50
50907;DHT22;36882;27.680;85.304;2022-12-20T04:22:55;15.30;89.40
50907;DHT22;36882;27.680;85.304;2022-12-20T04:25:25;15.50;89.10
50907;DHT22;36882;27.680;85.304;2022-12-20T04:27:54;15.60;88.70
50907;DHT22;36882;27.680;85.304;2022-12-20T04:30:24;15.70;88.10
50907;DHT22;36882;27.680;85.304;2022-12-20T04:32:55;15.80;88.20
50907;DHT22;36882;27.680;85.304;2022-12-20T04:35:24;15.90;88.20
50907;DHT22;36882;27.680;85.304;2022-12-20T04:37:54;16.00;87.70
50907;DHT22;36882;27.680;85.304;2022-12-20T04:40:25;16.00;87.50
50907;DHT22;36882;27.680;85.304;2022-12-20T04:42:55;16.20;85.80
50907;DHT22;36882;27.680;85.304;2022-12-20T04:45:25;16.20;86.20
50907;DHT22;36882;27.680;85.304;2022-12-20T04:47:55;16.30;86.30
50907;DHT22;36882;27.680;85.304;2022-12-20T04:50:36;16.30;86.20
50907;DHT22;36882;27.680;85.304;2022-12-20T04:53:06;16.30;86.60
50907;DHT22;36882;27.680;85.304;2022-12-20T04:55:49;16.50;86.80
50907;DHT22;36882;27.680;85.304;2022-12-20T04:58:19;16.60;86.30
50907;DHT22;36882;27.680;85.304;2022-12-20T05:00:49;16.60;85.40
50907;DHT22;36882;27.680;85.304;2022-12-20T05:03:25;16.70;85.30
50907;DHT22;36882;27.680;85.304;2022-12-20T05:05:56;16.80;85.40
50907;DHT22;36882;27.680;85.304;2022-12-20T05:08:26;16.80;85.40
50907;DHT22;36882;27.680;85.304;2022-12-20T05:10:56;16.80;85.60
50907;DHT22;36882;27.680;85.304;2022-12-20T05:13:26;16.90;85.00
50907;DHT22;36882;27.680;85.304;2022-12-20T05:15:56;17.00;85.30
50907;DHT22;36882;27.680;85.304;2022-12-20T05:18:27;17.10;84.00
50907;DHT22;36882;27.680;85.304;2022-12-20T05:20:58;17.10;83.90
50907;DHT22;36882;27.680;85.304;2022-12-20T05:23:40;17.20;84.10
50907;DHT22;36882;27.680;85.304;2022-12-20T05:26:21;17.40;82.00
50907;DHT22;36882;27.680;85.304;2022-12-20T05:28:52;17.40;81.70
50907;DHT22;36882;27.680;85.304;2022-12-20T05:31:22;17.40;82.90
50907;DHT22;36882;27.680;85.304;2022-12-20T05:33:52;17.40;83.60
50907;DHT22;36882;27.680;85.304;2022-12-20T05:36:22;17.30;83.50
50907;DHT22;36882;27.680;85.304;2022-12-20T05:38:52;17.40;83.20
50907;DHT22;36882;27.680;85.304;2022-12-20T05:41:31;17.60;81.80
50907;DHT22;36882;27.680;85.304;2022-12-20T05:44:01;17.60;80.50
50907;DHT22;36882;27.680;85.304;2022-12-20T05:46:30;17.70;79.10
50907;DHT22;36882;27.680;85.304;2022-12-20T05:49:01;17.80;79.20
50907;DHT22;36882;27.680;85.304;2022-12-20T05:51:31;17.80;77.10
50907;DHT22;36882;27.680;85.304;2022-12-20T05:54:01;17.80;77.70
50907;DHT22;36882;27.680;85.304;2022-12-20T05:56:31;17.70;77.70
50907;DHT22;36882;27.680;85.304;2022-12-20T06:03:07;17.90;78.30
50907;DHT22;36882;27.680;85.304;2022-12-20T06:05:45;17.90;77.90
50907;DHT22;36882;27.680;85.304;2022-12-20T06:26:52;18.10;75.50
50907;DHT22;36882;27.680;85.304;2022-12-20T07:02:34;18.80;70.90
50907;DHT22;36882;27.680;85.304;2022-12-20T07:12:30;18.90;71.90
50907;DHT22;36882;27.680;85.304;2022-12-20T07:15:01;18.90;71.30
50907;DHT22;36882;27.680;85.304;2022-12-20T07:17:31;19.10;67.50
50907;DHT22;36882;27.680;85.304;2022-12-20T07:20:01;19.10;67.60
50907;DHT22;36882;27.680;85.304;2022-12-20T07:22:40;19.10;68.10
50907;DHT22;36882;27.680;85.304;2022-12-20T07:25:09;19.10;67.80
50907;DHT22;36882;27.680;85.304;2022-12-20T07:27:39;19.10;69.40
50907;DHT22;36882;27.680;85.304;2022-12-20T07:30:10;19.10;68.80
50907;DHT22;36882;27.680;85.304;2022-12-20T07:32:41;19.20;68.30
50907;DHT22;36882;27.680;85.304;2022-12-20T07:35:12;19.20;68.70
50907;DHT22;36882;27.680;85.304;2022-12-20T07:41:23;19.40;65.90
50907;DHT22;36882;27.680;85.304;2022-12-20T07:43:54;19.40;65.50
50907;DHT22;36882;27.680;85.304;2022-12-20T07:46:27;19.40;66.30
50907;DHT22;36882;27.680;85.304;2022-12-20T07:48:58;19.40;67.30
50907;DHT22;36882;27.680;85.304;2022-12-20T07:51:35;19.50;67.50
50907;DHT22;36882;27.680;85.304;2022-12-20T08:05:12;19.60;66.00
50907;DHT22;36882;27.680;85.304;2022-12-20T08:34:10;19.60;69.20
50907;DHT22;36882;27.680;85.304;2022-12-20T08:36:40;19.60;68.40
50907;DHT22;36882;27.680;85.304;2022-12-20T08:39:26;19.60;68.20
50907;DHT22;36882;27.680;85.304;2022-12-20T08:48:52;19.50;68.50
50907;DHT22;36882;27.680;85.304;2022-12-20T09:06:13;19.10;68.40
50907;DHT22;36882;27.680;85.304;2022-12-20T10:15:37;18.20;72.80
50907;DHT22;36882;27.680;85.304;2022-12-20T11:04:33;17.30;77.00
50907;DHT22;36882;27.680;85.304;2022-12-20T11:07:24;17.20;77.30
50907;DHT22;36882;27.680;85.304;2022-12-20T11:54:28;16.20;82.50
50907;DHT22;36882;27.680;85.304;2022-12-20T11:57:09;16.20;83.00
50907;DHT22;36882;27.680;85.304;2022-12-20T11:59:51;16.20;83.50
50907;DHT22;36882;27.680;85.304;2022-12-20T12:05:39;16.10;83.90
50907;DHT22;36882;27.680;85.304;2022-12-20T12:08:19;16.10;84.40
50907;DHT22;36882;27.680;85.304;2022-12-20T12:10:58;16.10;84.70
50907;DHT22;36882;27.680;85.304;2022-12-20T12:13:32;16.10;84.60
50907;DHT22;36882;27.680;85.304;2022-12-20T12:16:15;16.00;84.80
50907;DHT22;36882;27.680;85.304;2022-12-20T12:18:46;16.00;84.90
50907;DHT22;36882;27.680;85.304;2022-12-20T12:21:26;16.00;84.70
50907;DHT22;36882;27.680;85.304;2022-12-20T12:24:10;15.90;84.80
50907;DHT22;36882;27.680;85.304;2022-12-20T12:26:43;15.90;84.30
50907;DHT22;36882;27.680;85.304;2022-12-20T12:29:15;15.90;84.20
50907;DHT22;36882;27.680;85.304;2022-12-20T12:32:07;15.90;84.20
50907;DHT22;36882;27.680;85.304;2022-12-20T12:35:04;15.90;84.60
50907;DHT22;36882;27.680;85.304;2022-12-20T12:38:02;15.80;84.80
50907;DHT22;36882;27.680;85.304;2022-12-20T12:43:44;15.80;84.90
50907;DHT22;36882;27.680;85.304;2022-12-20T12:46:27;15.80;85.50
50907;DHT22;36882;27.680;85.304;2022-12-20T12:51:57;15.70;85.40
50907;DHT22;36882;27.680;85.304;2022-12-20T12:54:34;15.60;85.70
50907;DHT22;36882;27.680;85.304;2022-12-20T12:57:21;15.60;86.00
50907;DHT22;36882;27.680;85.304;2022-12-20T12:59:51;15.60;86.10
50907;DHT22;36882;27.680;85.304;2022-12-20T13:02:25;15.60;86.50
50907;DHT22;36882;27.680;85.304;2022-12-20T13:04:59;15.60;86.70
50907;DHT22;36882;27.680;85.304;2022-12-20T13:07:44;15.60;86.90
50907;DHT22;36882;27.680;85.304;2022-12-20T13:10:55;15.50;86.70
50907;DHT22;36882;27.680;85.304;2022-12-20T13:13:23;15.50;87.20
50907;DHT22;36882;27.680;85.304;2022-12-20T13:16:05;15.50;87.10
50907;DHT22;36882;27.680;85.304;2022-12-20T13:18:35;15.40;87.30
50907;DHT22;36882;27.680;85.304;2022-12-20T13:21:23;15.40;87.50
50907;DHT22;36882;27.680;85.304;2022-12-20T13:27:29;15.40;87.40
50907;DHT22;36882;27.680;85.304;2022-12-20T13:30:22;15.40;87.80
50907;DHT22;36882;27.680;85.304;2022-12-20T13:32:56;15.40;88.20
50907;DHT22;36882;27.680;85.304;2022-12-20T13:35:31;15.40;88.60
50907;DHT22;36882;27.680;85.304;2022-12-20T13:38:04;15.30;89.30
50907;DHT22;36882;27.680;85.304;2022-12-20T13:40:51;15.30;90.20
50907;DHT22;36882;27.680;85.304;2022-12-20T13:43:32;15.30;90.60
50907;DHT22;36882;27.680;85.304;2022-12-20T13:46:13;15.30;90.70
50907;DHT22;36882;27.680;85.304;2022-12-20T13:48:52;15.30;91.00
50907;DHT22;36882;27.680;85.304;2022-12-20T13:51:26;15.30;91.20
50907;DHT22;36882;27.680;85.304;2022-12-20T13:53:59;15.20;91.40
50907;DHT22;36882;27.680;85.304;2022-12-20T13:56:51;15.10;91.70
50907;DHT22;36882;27.680;85.304;2022-12-20T13:59:25;15.10;92.00
50907;DHT22;36882;27.680;85.304;2022-12-20T14:01:59;15.10;92.20
50907;DHT22;36882;27.680;85.304;2022-12-20T14:04:52;15.00;92.40
50907;DHT22;36882;27.680;85.304;2022-12-20T14:07:25;15.00;92.60
50907;DHT22;36882;27.680;85.304;2022-12-20T14:09:59;15.00;92.80
50907;DHT22;36882;27.680;85.304;2022-12-20T14:12:30;15.00;92.90
50907;DHT22;36882;27.680;85.304;2022-12-20T14:15:23;14.90;93.10
50907;DHT22;36882;27.680;85.304;2022-12-20T14:17:54;14.90;93.30
50907;DHT22;36882;27.680;85.304;2022-12-20T14:20:29;14.90;93.40
50907;DHT22;36882;27.680;85.304;2022-12-20T14:23:18;14.90;93.40
50907;DHT22;36882;27.680;85.304;2022-12-20T14:25:56;14.90;93.50
50907;DHT22;36882;27.680;85.304;2022-12-20T14:28:38;14.90;93.40
50907;DHT22;36882;27.680;85.304;2022-12-20T14:31:28;14.90;93.60
50907;DHT22;36882;27.680;85.304;2022-12-20T14:34:04;14.90;93.60
50907;DHT22;36882;27.680;85.304;2022-12-20T14:36:37;14.80;93.70
50907;DHT22;36882;27.680;85.304;2022-12-20T14:39:28;14.80;93.80
50907;DHT22;36882;27.680;85.304;2022-12-20T14:42:00;14.80;93.90
50907;DHT22;36882;27.680;85.304;2022-12-20T14:44:31;14.80;94.00
50907;DHT22;36882;27.680;85.304;2022-12-20T14:50:05;14.70;94.20
50907;DHT22;36882;27.680;85.304;2022-12-20T14:52:41;14.70;94.20
50907;DHT22;36882;27.680;85.304;2022-12-20T14:55:22;14.70;94.20
50907;DHT22;36882;27.680;85.304;2022-12-20T14:57:54;14.70;94.30
50907;DHT22;36882;27.680;85.304;2022-12-20T15:00:28;14.70;94.30
50907;DHT22;36882;27.680;85.304;2022-12-20T15:03:10;14.70;94.30
50907;DHT22;36882;27.680;85.304;2022-12-20T15:05:45;14.70;94.20
50907;DHT22;36882;27.680;85.304;2022-12-20T15:08:29;14.70;94.10
50907;DHT22;36882;27.680;85.304;2022-12-20T15:11:14;14.70;94.10
50907;DHT22;36882;27.680;85.304;2022-12-20T15:13:52;14.60;94.20
50907;DHT22;36882;27.680;85.304;2022-12-20T15:16:26;14.60;94.10
50907;DHT22;36882;27.680;85.304;2022-12-20T15:18:58;14.50;94.10
50907;DHT22;36882;27.680;85.304;2022-12-20T15:21:35;14.50;94.20
50907;DHT22;36882;27.680;85.304;2022-12-20T15:24:10;14.40;94.20
50907;DHT22;36882;27.680;85.304;2022-12-20T15:26:41;14.40;94.20
50907;DHT22;36882;27.680;85.304;2022-12-20T15:29:18;14.30;94.30
50907;DHT22;36882;27.680;85.304;2022-12-20T15:31:49;14.30;94.40
50907;DHT22;36882;27.680;85.304;2022-12-20T15:34:31;14.30;94.40
50907;DHT22;36882;27.680;85.304;2022-12-20T15:37:02;14.20;94.30
50907;DHT22;36882;27.680;85.304;2022-12-20T15:39:33;14.30;94.30
50907;DHT22;36882;27.680;85.304;2022-12-20T15:42:04;14.30;94.40
50907;DHT22;36882;27.680;85.304;2022-12-20T15:44:36;14.20;94.10
50907;DHT22;36882;27.680;85.304;2022-12-20T15:47:11;14.20;94.10
50907;DHT22;36882;27.680;85.304;2022-12-20T15:49:41;14.10;94.10
50907;DHT22;36882;27.680;85.304;2022-12-20T15:52:20;14.10;94.20
50907;DHT22;36882;27.680;85.304;2022-12-20T15:54:51;14.00;94.10
50907;DHT22;36882;27.680;85.304;2022-12-20T15:57:20;14.00;94.20
50907;DHT22;36882;27.680;85.304;2022-12-20T15:59:50;14.00;94.20
50907;DHT22;36882;27.680;85.304;2022-12-20T16:02:29;14.00;94.20
50907;DHT22;36882;27.680;85.304;2022-12-20T16:05:00;13.90;94.20
50907;DHT22;36882;27.680;85.304;2022-12-20T16:07:30;14.00;94.20
50907;DHT22;36882;27.680;85.304;2022-12-20T16:10:00;13.90;94.20
50907;DHT22;36882;27.680;85.304;2022-12-20T16:12:35;13.90;94.30
50907;DHT22;36882;27.680;85.304;2022-12-20T16:15:05;13.80;94.40
50907;DHT22;36882;27.680;85.304;2022-12-20T16:17:36;13.80;94.30
50907;DHT22;36882;27.680;85.304;2022-12-20T16:20:08;13.70;94.40
50907;DHT22;36882;27.680;85.304;2022-12-20T16:22:38;13.70;94.50
50907;DHT22;36882;27.680;85.304;2022-12-20T16:25:26;13.70;94.50
50907;DHT22;36882;27.680;85.304;2022-12-20T16:27:56;13.70;94.40
50907;DHT22;36882;27.680;85.304;2022-12-20T16:30:27;13.70;94.40
50907;DHT22;36882;27.680;85.304;2022-12-20T16:32:56;13.70;94.40
50907;DHT22;36882;27.680;85.304;2022-12-20T16:35:32;13.70;94.40
50907;DHT22;36882;27.680;85.304;2022-12-20T16:38:03;13.70;94.40
50907;DHT22;36882;27.680;85.304;2022-12-20T16:40:33;13.70;94.30
50907;DHT22;36882;27.680;85.304;2022-12-20T16:43:03;13.70;94.30
50907;DHT22;36882;27.680;85.304;2022-12-20T16:45:33;13.60;94.40
50907;DHT22;36882;27.680;85.304;2022-12-20T16:48:03;13.60;94.30
50907;DHT22;36882;27.680;85.304;2022-12-20T16:50:33;13.60;94.30
50907;DHT22;36882;27.680;85.304;2022-12-20T16:53:12;13.60;94.30
50907;DHT22;36882;27.680;85.304;2022-12-20T16:55:43;13.50;94.30
50907;DHT22;36882;27.680;85.304;2022-12-20T16:58:13;13.50;94.30
50907;DHT22;36882;27.680;85.304;2022-12-20T17:00:43;13.50;94.40
50907;DHT22;36882;27.680;85.304;2022-12-20T17:03:13;13.50;94.30
50907;DHT22;36882;27.680;85.304;2022-12-20T17:05:44;13.50;94.40
50907;DHT22;36882;27.680;85.304;2022-12-20T17:08:13;13.50;94.30
50907;DHT22;36882;27.680;85.304;2022-12-20T17:10:59;13.40;94.30
50907;DHT22;36882;27.680;85.304;2022-12-20T17:13:30;13.40;94.30
50907;DHT22;36882;27.680;85.304;2022-12-20T17:16:01;13.30;94.40
50907;DHT22;36882;27.680;85.304;2022-12-20T17:18:31;13.30;94.50
50907;DHT22;36882;27.680;85.304;2022-12-20T17:21:02;13.30;94.40
50907;DHT22;36882;27.680;85.304;2022-12-20T17:23:34;13.40;94.40
50907;DHT22;36882;27.680;85.304;2022-12-20T17:26:06;13.40;94.30
50907;DHT22;36882;27.680;85.304;2022-12-20T17:28:37;13.30;94.40
50907;DHT22;36882;27.680;85.304;2022-12-20T17:31:26;13.20;94.40
50907;DHT22;36882;27.680;85.304;2022-12-20T17:33:58;13.20;94.50
50907;DHT22;36882;27.680;85.304;2022-12-20T17:36:28;13.10;94.60
50907;DHT22;36882;27.680;85.304;2022-12-20T17:39:04;13.10;94.60
50907;DHT22;36882;27.680;85.304;2022-12-20T17:41:34;13.10;94.50
50907;DHT22;36882;27.680;85.304;2022-12-20T17:44:04;13.10;94.50
50907;DHT22;36882;27.680;85.304;2022-12-20T17:46:34;13.00;94.60
50907;DHT22;36882;27.680;85.304;2022-12-20T17:49:04;13.00;94.60
50907;DHT22;36882;27.680;85.304;2022-12-20T17:51:34;13.00;94.50
50907;DHT22;36882;27.680;85.304;2022-12-20T17:54:04;13.00;94.60
50907;DHT22;36882;27.680;85.304;2022-12-20T17:56:35;12.90;94.50
50907;DHT22;36882;27.680;85.304;2022-12-20T17:59:05;13.00;94.40
50907;DHT22;36882;27.680;85.304;2022-12-20T18:01:35;13.00;94.40
50907;DHT22;36882;27.680;85.304;2022-12-20T18:04:08;13.00;94.40
50907;DHT22;36882;27.680;85.304;2022-12-20T18:06:41;13.00;94.30
50907;DHT22;36882;27.680;85.304;2022-12-20T18:09:15;12.90;94.40
50907;DHT22;36882;27.680;85.304;2022-12-20T18:11:45;12.90;94.40
50907;DHT22;36882;27.680;85.304;2022-12-20T18:14:15;12.90;94.40
50907;DHT22;36882;27.680;85.304;2022-12-20T18:16:45;12.80;94.30
50907;DHT22;36882;27.680;85.304;2022-12-20T18:19:17;12.80;94.40
50907;DHT22;36882;27.680;85.304;2022-12-20T18:21:48;12.80;94.40
50907;DHT22;36882;27.680;85.304;2022-12-20T18:24:18;12.80;94.30
50907;DHT22;36882;27.680;85.304;2022-12-20T18:26:49;12.70;94.30
50907;DHT22;36882;27.680;85.304;2022-12-20T18:29:19;12.70;94.20
50907;DHT22;36882;27.680;85.304;2022-12-20T18:31:49;12.60;94.30
50907;DHT22;36882;27.680;85.304;2022-12-20T18:34:19;12.60;94.30
50907;DHT22;36882;27.680;85.304;2022-12-20T18:36:50;12.70;94.70
50907;DHT22;36882;27.680;85.304;2022-12-20T18:39:20;12.60;94.50
50907;DHT22;36882;27.680;85.304;2022-12-20T18:41:50;12.60;94.60
50907;DHT22;36882;27.680;85.304;2022-12-20T18:44:20;12.60;94.40
50907;DHT22;36882;27.680;85.304;2022-12-20T18:46:56;12.70;94.20
50907;DHT22;36882;27.680;85.304;2022-12-20T18:49:26;12.60;94.30
50907;DHT22;36882;27.680;85.304;2022-12-20T18:51:58;12.50;94.30
50907;DHT22;36882;27.680;85.304;2022-12-20T18:54:28;12.50;94.40
50907;DHT22;36882;27.680;85.304;2022-12-20T18:56:58;12.50;94.50
50907;DHT22;36882;27.680;85.304;2022-12-20T18:59:28;12.50;94.40
50907;DHT22;36882;27.680;85.304;2022-12-20T19:01:58;12.60;94.40
50907;DHT22;36882;27.680;85.304;2022-12-20T19:04:29;12.50;94.30
50907;DHT22;36882;27.680;85.304;2022-12-20T19:06:59;12.50;94.40
50907;DHT22;36882;27.680;85.304;2022-12-20T19:09:28;12.50;94.40
50907;DHT22;36882;27.680;85.304;2022-12-20T19:11:58;12.50;94.40
50907;DHT22;36882;27.680;85.304;2022-12-20T19:14:28;12.40;94.50
50907;DHT22;36882;27.680;85.304;2022-12-20T19:16:58;12.40;94.50
50907;DHT22;36882;27.680;85.304;2022-12-20T19:19:28;12.40;94.40
50907;DHT22;36882;27.680;85.304;2022-12-20T19:21:58;12.30;94.50
50907;DHT22;36882;27.680;85.304;2022-12-20T19:24:28;12.30;94.60
50907;DHT22;36882;27.680;85.304;2022-12-20T19:26:58;12.30;94.60
50907;DHT22;36882;27.680;85.304;2022-12-20T19:29:28;12.30;94.60
50907;DHT22;36882;27.680;85.304;2022-12-20T19:31:58;12.20;94.60
50907;DHT22;36882;27.680;85.304;2022-12-20T19:34:28;12.20;94.50
50907;DHT22;36882;27.680;85.304;2022-12-20T19:36:59;12.20;94.50
50907;DHT22;36882;27.680;85.304;2022-12-20T19:39:29;12.20;94.50
50907;DHT22;36882;27.680;85.304;2022-12-20T19:41:59;12.20;94.50
50907;DHT22;36882;27.680;85.304;2022-12-20T19:44:49;12.20;94.40
50907;DHT22;36882;27.680;85.304;2022-12-20T19:47:19;12.20;94.60
50907;DHT22;36882;27.680;85.304;2022-12-20T19:49:49;12.10;94.50
50907;DHT22;36882;27.680;85.304;2022-12-20T19:52:19;12.10;94.50
50907;DHT22;36882;27.680;85.304;2022-12-20T19:54:55;12.10;94.50
50907;DHT22;36882;27.680;85.304;2022-12-20T19:57:25;12.10;94.50
50907;DHT22;36882;27.680;85.304;2022-12-20T19:59:55;12.10;94.60
50907;DHT22;36882;27.680;85.304;2022-12-20T20:02:25;12.10;94.60
50907;DHT22;36882;27.680;85.304;2022-12-20T20:04:56;12.10;94.60
50907;DHT22;36882;27.680;85.304;2022-12-20T20:07:26;12.00;94.70
50907;DHT22;36882;27.680;85.304;2022-12-20T20:09:56;12.10;94.70
50907;DHT22;36882;27.680;85.304;2022-12-20T20:12:26;12.00;94.60
50907;DHT22;36882;27.680;85.304;2022-12-20T20:14:56;12.00;94.60
50907;DHT22;36882;27.680;85.304;2022-12-20T20:17:26;12.00;94.60
50907;DHT22;36882;27.680;85.304;2022-12-20T20:19:56;12.00;94.60
50907;DHT22;36882;27.680;85.304;2022-12-20T20:22:26;12.00;94.60
50907;DHT22;36882;27.680;85.304;2022-12-20T20:24:56;11.90;94.50
50907;DHT22;36882;27.680;85.304;2022-12-20T20:27:26;12.00;94.60
50907;DHT22;36882;27.680;85.304;2022-12-20T20:29:56;11.90;94.50
50907;DHT22;36882;27.680;85.304;2022-12-20T20:32:26;11.90;94.50
50907;DHT22;36882;27.680;85.304;2022-12-20T20:34:56;11.90;94.40
50907;DHT22;36882;27.680;85.304;2022-12-20T20:37:25;11.90;94.40
50907;DHT22;36882;27.680;85.304;2022-12-20T20:39:55;11.90;94.30
50907;DHT22;36882;27.680;85.304;2022-12-20T20:42:25;11.90;94.30
50907;DHT22;36882;27.680;85.304;2022-12-20T20:44:55;11.80;94.40
50907;DHT22;36882;27.680;85.304;2022-12-20T20:47:25;11.80;94.50
50907;DHT22;36882;27.680;85.304;2022-12-20T20:49:55;11.80;94.50
50907;DHT22;36882;27.680;85.304;2022-12-20T20:52:25;11.70;94.60
50907;DHT22;36882;27.680;85.304;2022-12-20T20:54:56;11.70;94.70
50907;DHT22;36882;27.680;85.304;2022-12-20T20:57:26;11.70;94.60
50907;DHT22;36882;27.680;85.304;2022-12-20T20:59:58;11.70;94.60
50907;DHT22;36882;27.680;85.304;2022-12-20T21:02:28;11.70;94.60
50907;DHT22;36882;27.680;85.304;2022-12-20T21:04:58;11.70;94.70